Gerpinnes, Belgium
Current Conditions -  °F | °C
As of 11:55 AM on Friday 24 Oct 2014 (Local Time) from EBFS Reporting Station
Light Rain Light Rain  
Wind Chill: 50°   Ceiling: 3500
Heat Index: 50°   Visibility: 6mi
Dew Point: 46°   Wind: 9mph
Humidity: 87%   Direction: 200°SSW
Pressure: 30.15"   Gusts: NA
Location:  50.34°N, 4.53°E
Report Text: EBFS 240955Z 20008KT 9999 -RA FEW025 BKN035 10/08 Q1021 BLU BLU TEMPO GRN
Loading
Personal Weather Stations






























Interactive Weather Map
Tropical Storm Tracking
New forecast layout! Learn more

10-Day Weather Forecast

Advertisements
Track Severe Weather on mobile